Goldfield, Nevada Weather observations

Data are for observation ending at time listed.
 Day   Time    Ave.   Ave.  Ave.  Vector   Max.   Stn.    Total    Solar   Ave.  
  of    of     Air    Rel.  Wind   Wind    Wind   Baro.  Precip.   Rad.    Soil  
Year   Day     Temp.  Hum.  Speed  Dir.    Gust   Pres.                    Temp. 
2015   (PST)    F      %     mph   deg.    mph     mb.     in.     W/m2     F   
------------------------------------------------------------------------------
  86    4:30   51.0    34    5.6   104      7.5   834.7    0.00       0    54.4
  86    4:40   50.4    35    4.6   146      6.7   834.6    0.00       0    54.2
  86    4:50   50.1    35    5.1   145      7.5   834.6    0.00       0    54.2
  86    5:00   49.7    36    3.7   124      5.6   834.6    0.00       0    54.1
  86    5:10   50.0    35    4.0   125      5.9   834.7    0.00       0    54.0
  86    5:20   50.2    35    4.9   144      7.5   834.7    0.00       0    53.9
  86    5:30   49.6    36    3.9   165      6.8   834.8    0.00       0    53.9
  86    5:40   48.0    37    3.6   242      5.0   834.9    0.00       1    53.7
  86    5:50   47.2    38    2.9   263      5.4   835.1    0.00       6    53.7
  86    6:00   47.5    38    1.4   255      2.6   835.1    0.00      19    53.5
  86    6:10   49.1    36    1.6   120      3.3   835.1    0.00      51    53.5
  86    6:20   49.2    36    2.3   124      3.6   835.3    0.00      89    53.5
  86    6:30   51.5    34    1.1   123      1.7   835.3    0.00     120    53.4
  86    6:40   54.9    30    0.7    96      1.8   835.3    0.00     157    53.3
  86    6:50   57.2    29    0.0   101      0.9   835.3    0.00     192    53.2
  86    7:00   59.6    26    0.3   342      1.2   835.3    0.00     233    53.2
  86    7:10   58.1    28    1.0   343      2.8   835.3    0.00     276    53.1
  86    7:20   57.6    28    1.1   342      2.4   835.2    0.00     311    53.1
  86    7:30   59.7    26    0.6   342      1.4   835.3    0.00     348    53.1
  86    7:40   61.5    25    0.6   313      1.5   835.3    0.00     389    53.2
  86    7:50   63.2    24    0.8   321      2.5   835.3    0.00     423    53.3
  86    8:00   62.7    24    1.5   335      2.6   835.2    0.00     459    53.4
  86    8:10   62.5    25    2.1   357      4.5   835.3    0.00     490    53.5
  86    8:20   61.9    25    3.4   348      5.6   835.3    0.00     525    53.7
  86    8:30   61.1    26    4.5   347      7.2   835.3    0.00     558    53.9
  86    8:40   61.5    25    4.8   342      7.5   835.4    0.00     591    54.1
  86    8:50   61.8    25    4.6   338      7.2   835.4    0.00     622    54.5
  86    9:00   62.6    24    5.0   355      7.7   835.5    0.00     649    54.7
  86    9:10   63.4    24    4.2   339      6.8   835.5    0.00     679    54.9
  86    9:20   64.2    23    5.2   353      9.3   835.5    0.00     704    55.1
  86    9:30   67.0    21    2.9   357      5.8   835.5    0.00     729    55.2
  86    9:40   68.0    20    3.1    27      6.2   835.6    0.00     751    55.5
  86    9:50   68.6    20    6.3    80     11.4   835.4    0.00     770    55.7
  86   10:00   68.1    20    6.6    90     10.3   835.3    0.00     790    56.0
  86   10:10   68.3    20    7.9    88     13.0   835.4    0.00     809    56.4
  86   10:20   68.3    19    7.8    81     14.5   835.3    0.00     827    56.8
  86   10:30   68.4    19    7.3   111     12.0   835.2    0.00     843    57.2
  86   10:40   68.5    19    8.2    95     14.0   835.1    0.00     856    57.7
  86   10:50   68.9    19    7.7   113     15.1   835.1    0.00     870    58.1
  86   11:00   69.3    19    8.1    89     14.0   835.0    0.00     880    58.6
  86   11:10   69.4    18    7.4   114     15.1   835.0    0.00     889    59.0
  86   11:20   69.9    18    9.2   113     14.5   834.9    0.00     896    59.4
  86   11:30   69.9    18   10.0   108     14.8   834.8    0.00     901    59.7
  86   11:40   69.7    18    9.1   111     15.6   834.7    0.00     904    60.2
  86   11:50   70.4    17    7.0   108     12.9   834.5    0.00     905    60.4
  86   12:00   71.4    17    8.7   105     14.9   834.4    0.00     905    60.8
  86   12:10   71.8    17    8.1    90     13.9   834.3    0.00     902    61.1
  86   12:20   72.3    16    6.2   158     13.8   834.2    0.00     900    61.4
  86   12:30   72.5    16    7.6   114     14.6   834.0    0.00     893    61.7
  86   12:40   72.9    16    9.3   159     15.8   833.9    0.00     885    62.1
  86   12:50   72.2    16    8.0   148     16.7   833.8    0.00     874    62.3
  86   13:00   72.5    16   10.0   118     18.2   833.6    0.00     862    62.7
  86   13:10   72.3    16    8.3   124     15.8   833.3    0.00     849    63.0
  86   13:20   73.0    16    7.9   132     12.5   833.0    0.00     835    63.2
  86   13:30   73.2    15    7.9   133     15.5   833.0    0.00     818    63.5
  86   13:40   72.8    16    7.4    88     15.3   832.7    0.00     799    63.7
  86   13:50   72.6    16    9.8    97     16.5   832.5    0.00     779    63.8
  86   14:00   72.8    15    9.3    96     17.1   832.3    0.00     757    64.0
  86   14:10   72.9    15    8.3    96     13.6   832.2    0.00     734    64.1
  86   14:20   72.8    16   10.1   117     16.4   832.1    0.00     709    64.2
  86   14:30   73.0    16    9.4    99     17.2   832.0    0.00     683    64.3
  86   14:40   72.7    16   10.2   116     17.5   831.8    0.00     656    64.3
  86   14:50   72.9    16   10.2   115     16.3   831.7    0.00     628    64.2
  86   15:00   73.0    15    8.1   114     14.3   831.7    0.00     599    64.2
  86   15:10   73.9    15    8.4    82     15.5   831.5    0.00     568    64.2
  86   15:20   73.9    15    9.9    85     18.0   831.5    0.00     537    64.2
  86   15:30   73.6    15   10.6   120     18.7   831.3    0.00     506    64.2
  86   15:40   73.0    15   11.3   108     18.2   831.2    0.00     472    64.2
  86   15:50   73.2    14   11.7   120     21.3   831.2    0.00     438    64.3
  86   16:00   73.5    14    9.3   125     16.2   831.2    0.00     404    64.3
  86   16:10   73.6    13    9.8   152     16.0   831.2    0.00     368    64.2
  86   16:20   73.9    13    9.4   162     14.5   831.2    0.00     333    64.2
  86   16:30   73.3    13    8.8   164     13.4   831.2    0.00     297    64.2
  86   16:40   73.3    13   10.2   159     15.6   831.1    0.00     262    64.1
  86   16:50   72.8    14   10.7   159     16.1   831.1    0.00     227    64.1
  86   17:00   72.6    14   11.0   163     15.1   831.2    0.00     193    64.1
  86   17:10   72.3    14   10.7   164     16.6   831.2    0.00     160    64.1
  86   17:20   71.7    14   11.9   161     16.0   831.2    0.00     128    64.0
  86   17:30   71.1    15   10.7   160     15.6   831.2    0.00      90    64.1
  86   17:40   70.2    15   11.6   161     15.6   831.1    0.00      39    64.0
  86   17:50   69.0    16   11.4   163     16.1   831.0    0.00      17    64.0
  86   18:00   68.2    17   10.5   160     14.8   831.1    0.00      13    64.0
  86   18:10   67.6    18   12.1   160     16.8   831.0    0.00       7    63.9
  86   18:20   66.8    18   13.2   163     16.4   831.1    0.00       3    63.7
  86   18:30   65.9    19   12.4   164     15.9   831.1    0.00       0    63.7
  86   18:40   65.1    19   12.8   166     19.0   831.1    0.00       0    63.6
  86   18:50   64.7    20   13.9   166     19.1   831.2    0.00       0    63.5
  86   19:00   64.1    20   13.9   165     18.3   831.3    0.00       0    63.5
  86   19:10   63.3    20   11.8   166     15.8   831.4    0.00       0    63.4
  86   19:20   63.2    21   13.0   167     16.1   831.5    0.00       0    63.3
  86   19:30   62.9    21   12.3   166     17.2   831.6    0.00       0    63.2
  86   19:40   62.2    21   11.2   168     15.6   831.7    0.00       0    63.0
  86   19:50   61.7    22   12.3   172     16.3   831.7    0.00       0    62.9
  86   20:00   61.4    22   11.7   174     16.2   831.7    0.00       0    62.9
  86   20:10   60.8    22   11.1   177     14.1   831.7    0.00       0    62.7
  86   20:20   61.1    22   11.7   170     15.7   831.7    0.00       0    62.6
  86   20:30   61.0    22   10.6   169     15.4   831.7    0.00       0    62.5
  86   20:40   60.9    22   12.6   171     17.3   831.8    0.00       0    62.3
  86   20:50   61.2    22   13.1   178     17.8   831.9    0.00       0    62.2
  86   21:00   60.6    22   13.8   189     18.7   831.9    0.00       0    62.1
  86   21:10   60.7    22   14.2   180     18.5   832.0    0.00       0    61.9
  86   21:20   60.9    22   14.3   178     17.7   832.0    0.00       0    61.8
  86   21:30   60.9    22   13.5   183     18.3   832.0    0.00       0    61.7
  86   21:40   60.7    23   13.1   180     18.2   832.1    0.00       0    61.6
  86   21:50   60.2    23   11.1   171     15.6   832.1    0.00       0    61.4
  86   22:00   60.2    23   14.1   174     17.7   832.1    0.00       0    61.4
  86   22:10   59.6    23   12.0   176     16.1   832.1    0.00       0    61.3
  86   22:20   59.9    23   13.4   174     17.8   832.1    0.00       0    61.1
  86   22:30   59.4    24   11.1   178     15.6   832.1    0.00       0    61.0
  86   22:40   58.4    24    9.9   182     12.5   832.2    0.00       0    60.9
  86   22:50   57.7    25   11.2   178     14.2   832.2    0.00       0    60.8
  86   23:00   57.8    25   10.6   172     13.3   832.1    0.00       0    60.7
  86   23:10   58.5    24   10.4   169     14.0   832.1    0.00       0    60.6
  86   23:20   57.9    25   10.7   170     13.2   832.0    0.00       0    60.4
  86   23:30   57.6    25   11.8   172     15.2   831.9    0.00       0    60.3
  86   23:40   57.4    25   11.0   174     14.2   831.9    0.00       0    60.2
  86   23:50   57.7    25   11.7   172     14.8   831.9    0.00       0    60.1
  87    0:00   58.2    24   12.1   176     15.4   831.8    0.00       0    60.0
  87    0:10   58.2    24   12.0   177     15.8   831.9    0.00       0    59.9
  87    0:20   57.3    25   10.9   171     13.6   831.9    0.00       0    59.8
  87    0:30   57.1    25   10.1   165     13.2   831.9    0.00       0    59.8
  87    0:40   57.1    25   10.6   167     13.2   831.8    0.00       0    59.6
  87    0:50   57.1    25    9.8   177     12.1   831.8    0.00       0    59.5
  87    1:00   56.8    25    9.9   179     12.1   831.8    0.00       0    59.4
  87    1:10   56.4    26    9.5   167     12.4   831.8    0.00       0    59.3
  87    1:20   56.3    26    8.9   161     11.3   831.7    0.00       0    59.2
  87    1:30   56.1    26    9.1   161     10.4   831.8    0.00       0    59.1
  87    1:40   56.1    26    7.5   164      9.3   831.8    0.00       0    59.0
  87    1:50   55.1    27    3.6   144      6.9   831.7    0.00       0    58.9
  87    2:00   55.0    27    7.1   174      8.3   831.8    0.00       0    58.8
  87    2:10   55.6    26    5.9   173      7.9   831.8    0.00       0    58.7
  87    2:20   54.0    28    7.7   197      9.4   831.8    0.00       0    58.6
  87    2:30   55.5    26    7.5   180      9.3   831.7    0.00       0    58.5
  87    2:40   55.7    26    7.5   185     11.0   831.7    0.00       0    58.4
  87    2:50   57.7    24    9.5   188     12.9   831.7    0.00       0    58.3
  87    3:00   57.4    25    5.0   225      9.1   831.7    0.00       0    58.2
  87    3:10   54.7    27    3.8   307      7.6   831.8    0.00       0    58.0
  87    3:20   51.0    30    1.4   211      2.8   831.9    0.00       0    57.9
  87    3:30   50.9    30    2.0   127      3.7   832.0    0.00       0    57.8
  87    3:40   51.1    30    1.7   167      3.0   832.1    0.00       0    57.7
  87    3:50   50.8    30    3.4   151      5.0   832.2    0.00       0    57.7
  87    4:00   50.7    30    2.6   145      4.8   832.2    0.00       0    57.6
  87    4:10   50.3    31    2.6   150      3.6   832.1    0.00       0    57.4
  87    4:20   49.8    31    2.9   214      4.4   832.1    0.00       0    57.3

Return to Goldfield, Nevada graphs page.


Western Regional Climate Center,wrcc@dri.edu